Espaço - Ciências - Fenômenos Naturais
Meteógrafos Informações Meteorológicas em tempo real

Aeroporto de Congonhas

Histórico do Tempo
Temperatura atual: 24 graus 75 F    Umidade relativa: 29 %
Velocidade do vento: 06 nós 10 Km/h    Direção: 250 graus WSW
Ajuste do altímetro ..: 1022 HPA
Visibilidade: Ótima    Tempo presente: Céu Limpo

Observação

Data Hora BRTTempo°CUmidadePressãoVentoVisib.
20/04 - 11:55   Céu Limpo 23° 38% 1023 Oeste-sudoeste/5 km/h OK
20/04 - 09:55   Céu Limpo 19° 68% 1023 Norte/5 km/h OK
20/04 - 08:55   Céu Limpo 19° 68% 1023 Norte/5 km/h OK
20/04 - 05:55   Não Disponível 16° 77% 1021 /1 km/h ND
20/04 - 04:55   Não Disponível 17° 67% 1022 /3 km/h ND
20/04 - 03:55   Não Disponível 17° 67% 1022 Norte-nordeste/3 km/h ND
20/04 - 01:55   Não Disponível 17° 72% 1023 Norte/0 km/h ND
20/04 - 00:55   Não Disponível 17° 72% 1023 Norte/0 km/h ND
19/04 - 22:55   Céu Limpo 18° 63% 1024 Este-nordeste/1 km/h OK
19/04 - 21:55   Céu Limpo 18° 63% 1024 Este-nordeste/1 km/h OK
19/04 - 20:55   Céu Limpo 19° 63% 1024 Sudeste/9 km/h OK
19/04 - 19:55   Céu Limpo 19° 63% 1024 Sudeste/9 km/h OK
19/04 - 18:55   Céu Limpo 20° 68% 1023 Sul/14 km/h OK
19/04 - 15:55   Não Disponível 25° 36% 1022 Noroeste/12 km/h 9999
19/04 - 14:55   Céu Limpo 25° 34% 1023 Oeste/12 km/h OK
19/04 - 13:55   Céu Limpo 25° 34% 1023 Oeste/12 km/h OK
19/04 - 12:55   Céu Limpo 25° 36% 1024 Oeste/12 km/h CAVO
19/04 - 11:55   Céu Limpo 23° 46% 1024 Oeste-noroeste/10 km/h CAVO
19/04 - 10:55   Céu Limpo 22° 60% 1025 /7 km/h OK
19/04 - 08:55   Céu Limpo 17° 77% 1025 Nordeste/7 km/h CAVO
19/04 - 06:55   Céu Limpo 15° 77% 1024 /1 km/h OK
19/04 - 05:55   Não Disponível 15° 77% 1024 /3 km/h ND
19/04 - 03:55   Não Disponível 15° 77% 1024 /3 km/h ND
19/04 - 02:55   Não Disponível 16° 67% 1025 Sudeste/3 km/h ND


Apolo11.com - Todos os direitos reservados - 2000 - 2018
Política de Privacidade   |     Termo de Uso e Licenciamento   |  -   Entre em Contato

"A Justiça sem força e a força sem justiça: desgraças terríveis" - Joubert